Time;durP1;ratioP1;P1;durP2;ratioP2;P2;SDS_P1;SDS_P2;PMS_P1;PMS_P2;Temp;Humidity;BMP_temperature;BMP_pressure;BME280_temperature;BME280_humidity;BME280_pressure;Samples;Min_cycle;Max_cycle;Signal;HPM_P1;HPM_P2
2021/01/26 00:00:04;;;;;;;12.77;3.30;;;12.20;52.00;;;;;;1032139;28;20152;-73
2021/01/26 00:00:35;;;;;;;12.48;3.70;;;12.20;52.20;;;;;;1036752;28;20520;-72
2021/01/26 00:01:07;;;;;;;14.18;3.33;;;12.10;52.30;;;;;;1039201;28;20060;-72
2021/01/26 00:01:38;;;;;;;13.57;3.20;;;12.10;52.20;;;;;;1039387;28;20028;-71
2021/01/26 00:02:10;;;;;;;13.02;2.92;;;12.10;52.40;;;;;;1038726;28;20491;-71
2021/01/26 00:02:42;;;;;;;12.18;3.00;;;12.10;52.40;;;;;;1037088;28;20022;-71
2021/01/26 00:03:13;;;;;;;14.27;3.67;;;12.10;52.30;;;;;;1036365;28;20128;-71
2021/01/26 00:03:45;;;;;;;15.48;3.50;;;12.10;52.50;;;;;;1036839;28;20425;-73
2021/01/26 00:04:16;;;;;;;19.35;3.80;;;12.00;52.40;;;;;;1032719;28;20023;-72
2021/01/26 00:04:48;;;;;;;17.52;3.30;;;12.00;52.50;;;;;;1033427;28;20019;-72
2021/01/26 00:05:19;;;;;;;12.88;3.58;;;12.00;52.70;;;;;;1037475;28;20022;-72
2021/01/26 00:05:51;;;;;;;15.23;3.40;;;12.10;52.70;;;;;;1040614;28;20022;-73
2021/01/26 00:06:22;;;;;;;12.93;3.33;;;12.10;52.60;;;;;;1038135;28;20371;-72
2021/01/26 00:06:54;;;;;;;11.43;3.55;;;12.10;52.70;;;;;;1038139;28;20033;-71
2021/01/26 00:07:25;;;;;;;15.80;3.60;;;12.10;52.70;;;;;;1041093;28;20029;-73
2021/01/26 00:07:56;;;;;;;13.10;3.17;;;12.10;52.30;;;;;;1041126;28;20029;-72
2021/01/26 00:08:28;;;;;;;15.98;3.80;;;12.10;51.80;;;;;;1038058;28;20056;-72
2021/01/26 00:08:59;;;;;;;12.30;3.38;;;12.10;51.70;;;;;;1036650;28;20348;-72
2021/01/26 00:09:31;;;;;;;10.48;3.17;;;12.10;51.80;;;;;;1036727;28;20349;-71
2021/01/26 00:10:06;;;;;;;13.85;3.60;;;12.10;51.90;;;;;;1036910;28;20356;-71
2021/01/26 00:10:39;;;;;;;12.02;3.30;;;12.20;51.90;;;;;;1033479;28;20027;-71
2021/01/26 00:11:10;;;;;;;14.48;3.58;;;12.10;52.00;;;;;;1035568;28;20088;-73
2021/01/26 00:11:42;;;;;;;13.07;3.55;;;12.10;52.00;;;;;;1039441;28;20034;-72
2021/01/26 00:12:14;;;;;;;12.77;4.20;;;12.10;52.10;;;;;;1038699;28;20084;-73
2021/01/26 00:12:45;;;;;;;14.68;3.97;;;12.10;52.20;;;;;;1040255;28;20474;-70
2021/01/26 00:13:19;;;;;;;17.65;3.42;;;12.00;52.20;;;;;;1039778;28;20013;-72
2021/01/26 00:13:51;;;;;;;17.42;4.10;;;12.10;52.30;;;;;;1036787;28;21373;-73
2021/01/26 00:14:22;;;;;;;12.30;3.30;;;12.00;52.40;;;;;;1037245;28;20060;-73
2021/01/26 00:14:53;;;;;;;19.33;4.18;;;12.00;52.50;;;;;;1036923;28;20390;-72
2021/01/26 00:15:25;;;;;;;16.33;4.00;;;12.00;52.70;;;;;;1038175;28;20136;-72
2021/01/26 00:15:56;;;;;;;16.95;3.53;;;12.10;52.80;;;;;;1035993;28;20027;-72
2021/01/26 00:16:28;;;;;;;14.82;3.50;;;12.10;52.90;;;;;;1031377;28;20480;-72
2021/01/26 00:16:59;;;;;;;13.32;3.38;;;12.00;52.90;;;;;;1033261;28;20025;-72
2021/01/26 00:17:31;;;;;;;12.13;3.53;;;12.00;53.00;;;;;;1035667;28;20022;-72
2021/01/26 00:18:04;;;;;;;14.35;3.40;;;12.00;53.10;;;;;;1040938;28;20347;-72
2021/01/26 00:18:35;;;;;;;12.38;3.55;;;11.90;53.10;;;;;;1040733;28;20101;-72
2021/01/26 00:19:08;;;;;;;15.13;3.42;;;12.00;52.90;;;;;;1039994;28;20350;-72
2021/01/26 00:19:39;;;;;;;18.17;3.70;;;12.00;52.70;;;;;;1040760;28;20024;-72
2021/01/26 00:20:12;;;;;;;15.18;3.70;;;12.00;52.70;;;;;;1036587;28;20018;-72
2021/01/26 00:20:44;;;;;;;13.30;3.80;;;12.00;52.80;;;;;;1036722;28;20010;-73
2021/01/26 00:21:15;;;;;;;17.23;4.03;;;12.00;53.00;;;;;;1037407;28;20013;-72
2021/01/26 00:21:46;;;;;;;15.45;3.80;;;12.00;52.90;;;;;;1037295;28;20416;-73
2021/01/26 00:22:18;;;;;;;13.43;3.53;;;12.00;53.00;;;;;;1040776;28;20599;-72
2021/01/26 00:22:49;;;;;;;11.95;3.38;;;12.00;53.30;;;;;;1035517;28;20037;-72
2021/01/26 00:23:21;;;;;;;13.88;3.63;;;11.90;53.30;;;;;;1029566;28;20109;-71
2021/01/26 00:23:52;;;;;;;14.70;3.50;;;11.90;53.30;;;;;;1036582;28;20080;-72
2021/01/26 00:24:24;;;;;;;15.25;3.40;;;12.00;53.40;;;;;;1034925;28;20022;-71
2021/01/26 00:24:55;;;;;;;15.70;3.70;;;12.00;53.40;;;;;;1036333;28;20029;-72
2021/01/26 00:25:35;;;;;;;14.32;3.55;;;12.00;53.40;;;;;;1035758;28;20444;-72
2021/01/26 00:26:07;;;;;;;12.90;3.38;;;12.00;53.50;;;;;;1035139;28;20018;-71
2021/01/26 00:26:38;;;;;;;15.05;3.67;;;12.00;53.40;;;;;;1037426;28;20494;-72
2021/01/26 00:27:09;;;;;;;16.23;3.92;;;12.00;53.40;;;;;;1040774;28;20030;-73
2021/01/26 00:27:41;;;;;;;16.73;3.72;;;12.00;53.50;;;;;;1040187;28;20033;-72
2021/01/26 00:28:14;;;;;;;13.52;3.38;;;12.00;53.50;;;;;;1040310;28;20075;-72
2021/01/26 00:28:46;;;;;;;16.45;3.47;;;12.00;53.50;;;;;;1040619;28;20028;-72
2021/01/26 00:29:17;;;;;;;12.60;3.53;;;11.90;53.60;;;;;;1037476;28;20122;-72
2021/01/26 00:29:49;;;;;;;16.95;4.00;;;11.90;53.70;;;;;;1040085;28;20061;-73
2021/01/26 00:30:23;;;;;;;12.43;3.42;;;11.90;53.80;;;;;;1037604;28;20068;-71
2021/01/26 00:30:55;;;;;;;16.85;3.55;;;11.90;53.70;;;;;;1039557;28;20062;-72
2021/01/26 00:31:26;;;;;;;20.35;3.83;;;11.90;53.80;;;;;;1044784;28;20013;-71
2021/01/26 00:31:58;;;;;;;11.05;3.53;;;12.00;53.80;;;;;;1039750;28;20104;-71
2021/01/26 00:32:29;;;;;;;12.52;3.55;;;12.00;53.90;;;;;;1036569;28;20506;-72
2021/01/26 00:33:04;;;;;;;13.60;3.60;;;11.90;53.80;;;;;;1034852;28;20018;-71
2021/01/26 00:33:35;;;;;;;13.35;3.33;;;12.00;53.70;;;;;;1035132;28;20102;-72
2021/01/26 00:34:06;;;;;;;13.65;3.47;;;11.90;53.80;;;;;;1039470;28;20045;-72
2021/01/26 00:34:38;;;;;;;11.63;3.10;;;12.00;53.80;;;;;;1040179;28;20421;-71
2021/01/26 00:35:11;;;;;;;12.05;3.33;;;11.90;53.80;;;;;;1040096;28;20013;-71
2021/01/26 00:35:43;;;;;;;14.00;3.22;;;12.00;53.60;;;;;;1039386;28;20097;-72
2021/01/26 00:36:15;;;;;;;13.35;3.33;;;12.00;53.60;;;;;;1040964;28;20028;-72
2021/01/26 00:36:46;;;;;;;12.48;3.33;;;11.90;53.70;;;;;;1039328;28;20025;-72
2021/01/26 00:37:17;;;;;;;14.95;3.50;;;11.90;53.80;;;;;;1040407;28;20461;-71
2021/01/26 00:37:49;;;;;;;12.43;3.40;;;11.90;53.60;;;;;;1040155;28;20084;-72
2021/01/26 00:38:21;;;;;;;11.45;3.30;;;11.90;53.60;;;;;;1040799;28;20041;-72
2021/01/26 00:38:52;;;;;;;14.13;3.95;;;11.90;53.60;;;;;;1036519;28;20076;-72
2021/01/26 00:39:24;;;;;;;12.40;3.83;;;11.90;53.70;;;;;;1036744;28;20089;-72
2021/01/26 00:39:55;;;;;;;12.63;3.63;;;11.80;53.70;;;;;;1037191;28;20443;-71
2021/01/26 00:40:28;;;;;;;16.77;3.50;;;11.80;53.70;;;;;;1039962;28;20106;-71
2021/01/26 00:40:59;;;;;;;15.90;3.35;;;11.80;53.70;;;;;;1040720;28;20092;-72
2021/01/26 00:41:30;;;;;;;15.23;3.40;;;11.90;53.60;;;;;;1039806;28;20009;-72
2021/01/26 00:42:02;;;;;;;13.38;3.42;;;11.90;53.70;;;;;;1038288;28;20037;-72
2021/01/26 00:42:34;;;;;;;13.23;3.45;;;11.80;53.70;;;;;;1037008;28;20038;-73
2021/01/26 00:43:07;;;;;;;13.23;3.50;;;11.80;53.60;;;;;;1040828;28;20021;-72
2021/01/26 00:43:39;;;;;;;12.60;3.55;;;11.80;53.30;;;;;;1038511;28;20013;-72
2021/01/26 00:44:10;;;;;;;14.05;3.90;;;11.80;53.40;;;;;;1037568;28;20009;-71
2021/01/26 00:44:45;;;;;;;17.15;3.58;;;11.80;53.50;;;;;;1040333;28;20355;-72
2021/01/26 00:45:20;;;;;;;15.50;3.85;;;11.80;53.20;;;;;;1036778;28;20057;-71
2021/01/26 00:45:52;;;;;;;13.50;3.47;;;11.80;53.20;;;;;;1034502;28;20022;-71
2021/01/26 00:46:23;;;;;;;20.70;3.78;;;11.80;52.90;;;;;;1033999;28;20105;-72
2021/01/26 00:46:54;;;;;;;12.60;3.00;;;11.80;52.90;;;;;;1036733;28;20014;-73
2021/01/26 00:47:26;;;;;;;13.02;3.65;;;11.80;52.70;;;;;;1039438;28;20021;-72
2021/01/26 00:47:57;;;;;;;14.23;3.25;;;11.70;52.60;;;;;;1037795;28;20529;-72
2021/01/26 00:48:29;;;;;;;15.30;3.38;;;11.70;52.80;;;;;;1040312;28;20025;-71
2021/01/26 00:49:00;;;;;;;13.43;3.58;;;11.70;52.70;;;;;;1039543;28;20021;-72
2021/01/26 00:49:31;;;;;;;13.73;3.20;;;11.70;52.60;;;;;;1040632;28;20435;-72
2021/01/26 00:50:08;;;;;;;11.73;3.20;;;11.80;52.30;;;;;;1039803;28;20017;-72
2021/01/26 00:50:40;;;;;;;16.08;3.50;;;11.70;52.10;;;;;;1040001;28;20432;-72
2021/01/26 00:51:11;;;;;;;14.02;3.65;;;11.70;52.30;;;;;;1038598;28;20159;-73
2021/01/26 00:51:43;;;;;;;12.48;3.20;;;11.70;52.40;;;;;;1034021;28;20018;-72
2021/01/26 00:52:14;;;;;;;12.35;3.30;;;11.60;52.50;;;;;;1030547;28;20072;-72
2021/01/26 00:52:46;;;;;;;12.48;3.50;;;11.60;52.50;;;;;;1031514;28;20025;-73
2021/01/26 00:53:18;;;;;;;12.32;3.22;;;11.60;52.30;;;;;;1030776;28;20023;-73
2021/01/26 00:53:49;;;;;;;14.23;3.40;;;11.60;52.50;;;;;;1035598;28;20054;-71
2021/01/26 00:54:21;;;;;;;10.98;3.28;;;11.60;52.40;;;;;;1036412;28;20018;-72
2021/01/26 00:54:52;;;;;;;13.80;3.63;;;11.60;52.40;;;;;;1036065;28;20454;-72
2021/01/26 00:55:26;;;;;;;12.90;3.17;;;11.50;52.40;;;;;;1040167;28;20017;-72
2021/01/26 00:55:57;;;;;;;14.85;3.17;;;11.50;52.50;;;;;;1040447;28;20021;-72
2021/01/26 00:56:32;;;;;;;13.90;3.13;;;11.50;52.70;;;;;;1042489;28;20095;-72
2021/01/26 00:57:05;;;;;;;13.80;3.25;;;11.50;52.80;;;;;;1040636;28;20022;-74
2021/01/26 00:57:38;;;;;;;13.70;3.38;;;11.50;52.90;;;;;;1040441;28;20032;-72
2021/01/26 00:58:09;;;;;;;12.88;3.38;;;11.50;52.80;;;;;;1036674;28;20062;-72
2021/01/26 00:58:40;;;;;;;14.68;3.28;;;11.50;53.10;;;;;;1035835;28;20018;-72
2021/01/26 00:59:12;;;;;;;16.05;3.58;;;11.50;53.20;;;;;;1035362;28;20022;-72
2021/01/26 00:59:43;;;;;;;12.10;3.30;;;11.50;53.20;;;;;;1040258;28;20468;-71
2021/01/26 01:00:22;;;;;;;13.88;3.30;;;11.50;53.30;;;;;;1038216;28;20013;-72
2021/01/26 01:00:54;;;;;;;12.65;3.42;;;11.60;53.50;;;;;;1039107;28;20108;-72
2021/01/26 01:01:25;;;;;;;12.40;3.33;;;11.60;53.50;;;;;;1040214;28;20411;-71
2021/01/26 01:01:57;;;;;;;13.38;3.50;;;11.50;53.60;;;;;;1035923;28;20026;-72
2021/01/26 01:02:28;;;;;;;11.75;3.50;;;11.50;53.80;;;;;;1037332;28;20033;-72
2021/01/26 01:03:00;;;;;;;12.30;3.47;;;11.50;53.90;;;;;;1033653;28;20101;-72
2021/01/26 01:03:32;;;;;;;12.55;3.70;;;11.50;54.10;;;;;;1033723;28;20026;-72
2021/01/26 01:04:03;;;;;;;18.75;4.20;;;11.50;54.20;;;;;;1037289;28;20936;-71
2021/01/26 01:04:36;;;;;;;12.05;3.20;;;11.50;54.30;;;;;;1034304;28;20026;-71
2021/01/26 01:05:09;;;;;;;16.20;3.65;;;11.50;54.20;;;;;;1037684;28;20083;-72
2021/01/26 01:05:40;;;;;;;14.93;3.40;;;11.50;54.20;;;;;;1039114;28;20091;-72
2021/01/26 01:06:12;;;;;;;12.75;3.58;;;11.50;54.30;;;;;;1040743;28;20033;-71
2021/01/26 01:06:43;;;;;;;15.63;3.80;;;11.50;54.30;;;;;;1039315;28;20024;-74
2021/01/26 01:07:18;;;;;;;11.88;3.30;;;11.50;54.30;;;;;;1039739;28;20459;-71
2021/01/26 01:07:50;;;;;;;11.48;3.40;;;11.50;54.30;;;;;;1040573;28;20096;-71
2021/01/26 01:08:22;;;;;;;13.95;3.40;;;11.40;54.20;;;;;;1034813;28;20025;-71
2021/01/26 01:08:53;;;;;;;16.05;3.65;;;11.50;54.40;;;;;;1035101;28;20025;-72
2021/01/26 01:09:25;;;;;;;14.50;3.60;;;11.40;54.30;;;;;;1036490;28;20537;-72
2021/01/26 01:09:56;;;;;;;13.30;3.33;;;11.40;54.80;;;;;;1034368;28;20022;-72
2021/01/26 01:10:30;;;;;;;13.35;3.83;;;11.40;54.30;;;;;;1036863;28;21673;-72
2021/01/26 01:11:01;;;;;;;13.77;3.58;;;11.40;54.40;;;;;;1038076;28;20057;-72
2021/01/26 01:11:33;;;;;;;13.85;3.53;;;11.40;54.30;;;;;;1033797;28;20034;-71
2021/01/26 01:12:05;;;;;;;13.68;3.30;;;11.50;54.00;;;;;;1038559;28;20018;-71
2021/01/26 01:12:36;;;;;;;12.88;3.70;;;11.40;53.90;;;;;;1040363;28;20390;-72
2021/01/26 01:13:10;;;;;;;14.73;3.47;;;11.40;54.20;;;;;;1036473;28;20132;-72
2021/01/26 01:13:41;;;;;;;13.80;3.70;;;11.40;54.00;;;;;;1039173;28;20041;-71
2021/01/26 01:14:13;;;;;;;10.88;3.45;;;11.40;53.70;;;;;;1038871;28;20017;-71
2021/01/26 01:14:44;;;;;;;14.30;3.60;;;11.40;53.60;;;;;;1036505;28;20036;-71
2021/01/26 01:15:17;;;;;;;12.75;3.17;;;11.40;53.50;;;;;;1038394;28;20064;-72
2021/01/26 01:15:48;;;;;;;13.25;3.53;;;11.40;52.80;;;;;;1035066;28;20479;-73
2021/01/26 01:16:20;;;;;;;12.57;3.58;;;11.50;52.70;;;;;;1036094;28;20026;-73
2021/01/26 01:16:51;;;;;;;15.85;3.63;;;11.40;52.60;;;;;;1038951;28;20087;-73
2021/01/26 01:17:23;;;;;;;14.25;3.33;;;11.40;52.80;;;;;;1037405;28;20026;-71
2021/01/26 01:17:54;;;;;;;13.30;3.30;;;11.40;52.70;;;;;;1040281;28;20017;-74
2021/01/26 01:18:25;;;;;;;12.90;3.10;;;11.30;52.70;;;;;;1036431;28;20077;-72
2021/01/26 01:18:57;;;;;;;12.13;3.40;;;11.30;53.00;;;;;;1038870;28;20030;-72
2021/01/26 01:19:28;;;;;;;11.73;3.45;;;11.30;52.50;;;;;;1036470;28;20439;-72
2021/01/26 01:20:00;;;;;;;14.60;3.45;;;11.30;52.00;;;;;;1036332;28;20033;-71
2021/01/26 01:20:31;;;;;;;12.57;3.53;;;11.30;51.80;;;;;;1040223;28;20013;-72
2021/01/26 01:21:03;;;;;;;16.40;3.63;;;11.30;52.00;;;;;;1036091;28;20084;-72
2021/01/26 01:21:34;;;;;;;14.80;3.47;;;11.30;52.20;;;;;;1036363;28;20026;-71
2021/01/26 01:22:05;;;;;;;11.50;3.33;;;11.30;52.20;;;;;;1036414;28;20025;-74
2021/01/26 01:22:37;;;;;;;17.13;4.07;;;11.30;52.10;;;;;;1036588;28;20079;-73
2021/01/26 01:23:08;;;;;;;14.45;3.58;;;11.20;52.20;;;;;;1035893;28;20025;-72
2021/01/26 01:23:40;;;;;;;13.38;3.20;;;11.20;52.30;;;;;;1040825;28;20040;-73
2021/01/26 01:24:11;;;;;;;16.55;3.55;;;11.20;52.40;;;;;;1039974;28;20009;-74
2021/01/26 01:24:42;;;;;;;14.02;3.40;;;11.20;52.60;;;;;;1040499;28;20360;-72
2021/01/26 01:25:15;;;;;;;11.10;3.40;;;11.20;52.70;;;;;;1040687;28;20041;-70
2021/01/26 01:25:47;;;;;;;11.63;3.45;;;11.20;52.40;;;;;;1039971;28;20044;-71
2021/01/26 01:26:18;;;;;;;12.98;3.75;;;11.20;52.00;;;;;;1036579;28;20022;-74
2021/01/26 01:26:50;;;;;;;13.38;3.30;;;11.30;52.60;;;;;;1032405;28;20409;-73
2021/01/26 01:27:21;;;;;;;18.67;4.35;;;11.30;52.30;;;;;;1033006;28;20018;-71
2021/01/26 01:27:53;;;;;;;12.02;3.58;;;11.20;52.30;;;;;;1036511;28;20047;-72
2021/01/26 01:28:24;;;;;;;12.77;3.40;;;11.20;52.50;;;;;;1036956;28;20041;-71
2021/01/26 01:28:56;;;;;;;19.17;3.90;;;11.20;52.60;;;;;;1035851;28;20464;-73
2021/01/26 01:29:31;;;;;;;15.25;3.55;;;11.20;52.90;;;;;;1033455;28;20010;-73
2021/01/26 01:30:04;;;;;;;11.73;3.28;;;11.10;53.00;;;;;;1040732;28;20032;-73
2021/01/26 01:30:36;;;;;;;12.85;3.30;;;11.10;53.30;;;;;;1039487;28;20089;-73
2021/01/26 01:31:07;;;;;;;11.18;3.25;;;11.10;53.40;;;;;;1037262;28;20654;-73
2021/01/26 01:31:39;;;;;;;13.52;3.47;;;11.10;53.30;;;;;;1040660;28;20033;-74
2021/01/26 01:32:11;;;;;;;15.38;3.40;;;11.20;53.10;;;;;;1039392;28;20040;-73
2021/01/26 01:32:42;;;;;;;20.85;3.65;;;11.10;52.90;;;;;;1040735;28;20036;-74
2021/01/26 01:33:13;;;;;;;13.45;3.67;;;11.20;53.00;;;;;;1039697;28;20040;-73
2021/01/26 01:33:45;;;;;;;16.70;3.75;;;11.20;52.80;;;;;;1035908;28;20423;-73
2021/01/26 01:34:16;;;;;;;15.15;3.50;;;11.10;52.70;;;;;;1036636;28;20475;-73
2021/01/26 01:34:47;;;;;;;11.95;3.33;;;11.10;52.80;;;;;;1032776;28;20065;-73
2021/01/26 01:35:20;;;;;;;11.80;3.20;;;11.10;52.80;;;;;;1036938;28;20058;-75
2021/01/26 01:35:52;;;;;;;14.88;3.42;;;11.20;52.20;;;;;;1040527;28;20013;-74
2021/01/26 01:36:23;;;;;;;16.65;3.13;;;11.20;52.00;;;;;;1041402;28;20072;-73
2021/01/26 01:36:54;;;;;;;13.32;3.78;;;11.10;52.00;;;;;;1039605;28;20033;-72
2021/01/26 01:37:26;;;;;;;13.95;3.67;;;11.20;51.90;;;;;;1038121;28;20120;-72
2021/01/26 01:37:57;;;;;;;15.48;3.63;;;11.10;52.00;;;;;;1038325;28;20369;-73
2021/01/26 01:38:29;;;;;;;14.38;3.85;;;11.10;51.90;;;;;;1038552;28;20116;-74
2021/01/26 01:39:00;;;;;;;13.93;3.30;;;11.10;51.90;;;;;;1043651;28;20493;-73
2021/01/26 01:39:31;;;;;;;11.38;3.30;;;11.20;51.90;;;;;;1041649;28;20024;-73
2021/01/26 01:40:04;;;;;;;11.13;3.42;;;11.20;51.90;;;;;;1043490;28;20021;-73
2021/01/26 01:40:36;;;;;;;18.13;3.75;;;11.10;51.90;;;;;;1044637;28;20033;-72
2021/01/26 01:41:07;;;;;;;14.60;3.67;;;11.10;52.00;;;;;;1039616;28;20017;-73
2021/01/26 01:41:39;;;;;;;10.35;3.22;;;11.10;52.00;;;;;;1036058;28;20041;-73
2021/01/26 01:42:11;;;;;;;13.52;3.05;;;11.10;52.00;;;;;;1030582;28;20057;-73
2021/01/26 01:42:42;;;;;;;14.38;3.30;;;11.10;52.00;;;;;;1027017;28;20031;-73
2021/01/26 01:43:14;;;;;;;10.75;3.35;;;11.10;52.10;;;;;;1025775;28;20027;-73
2021/01/26 01:43:54;;;;;;;14.32;3.45;;;11.10;52.10;;;;;;1026266;28;20117;-73
2021/01/26 01:44:25;;;;;;;12.27;3.45;;;11.10;52.00;;;;;;1030107;28;20054;-73
2021/01/26 01:44:57;;;;;;;12.75;3.30;;;11.00;52.10;;;;;;1033943;28;20026;-73
2021/01/26 01:45:29;;;;;;;15.70;3.75;;;11.10;52.10;;;;;;1040833;28;20506;-73
2021/01/26 01:46:01;;;;;;;12.73;3.20;;;11.00;52.00;;;;;;1036473;28;20396;-73
2021/01/26 01:46:38;;;;;;;12.85;3.13;;;11.10;52.10;;;;;;1034213;28;20041;-72
2021/01/26 01:47:33;;;;;;;15.60;3.63;;;11.10;51.90;;;;;;1036242;28;20333;-72
2021/01/26 01:48:23;;;;;;;11.25;3.13;;;11.10;51.50;;;;;;1036760;28;20018;-73
2021/01/26 01:48:59;;;;;;;12.95;3.30;;;11.10;51.60;;;;;;1040388;28;20364;-73
2021/01/26 01:49:46;;;;;;;15.45;3.60;;;11.10;51.80;;;;;;1038269;28;20034;-71
2021/01/26 01:50:32;;;;;;;12.13;3.47;;;11.00;51.90;;;;;;1036495;28;20116;-71
2021/01/26 01:51:03;;;;;;;12.90;3.20;;;11.00;51.70;;;;;;1037846;28;20070;-72
2021/01/26 01:51:41;;;;;;;12.38;3.30;;;11.00;51.60;;;;;;1040318;28;20022;-72
2021/01/26 01:52:22;;;;;;;11.93;3.28;;;11.00;51.70;;;;;;1040120;28;20439;-72
2021/01/26 01:52:59;;;;;;;12.20;3.63;;;11.00;51.70;;;;;;1038660;28;20026;-72
2021/01/26 01:54:05;;;;;;;14.88;3.67;;;11.00;51.60;;;;;;1036660;28;20021;-72
2021/01/26 01:54:41;;;;;;;14.88;3.70;;;11.00;51.70;;;;;;1036409;28;20520;-71
2021/01/26 01:55:17;;;;;;;13.32;3.25;;;11.00;51.70;;;;;;1036117;28;20097;-71
2021/01/26 01:55:56;;;;;;;14.02;4.32;;;11.00;51.50;;;;;;1038926;28;20016;-72
2021/01/26 01:56:41;;;;;;;16.08;3.90;;;11.00;51.50;;;;;;1040021;28;20010;-72
2021/01/26 01:57:20;;;;;;;12.63;3.50;;;11.10;51.50;;;;;;1040312;28;20021;-73
2021/01/26 01:57:58;;;;;;;14.45;3.83;;;11.10;51.50;;;;;;1039850;28;20010;-72
2021/01/26 01:58:38;;;;;;;12.98;3.45;;;11.00;51.60;;;;;;1036686;28;20010;-73
2021/01/26 01:59:25;;;;;;;13.50;3.78;;;11.00;51.50;;;;;;1038560;28;20443;-73
2021/01/26 02:00:13;;;;;;;14.43;3.83;;;11.00;51.60;;;;;;1036930;28;20010;-73
2021/01/26 02:00:52;;;;;;;14.10;3.67;;;11.00;51.50;;;;;;1040023;28;20104;-73
2021/01/26 02:01:26;;;;;;;10.23;3.40;;;11.00;51.50;;;;;;1039351;28;20021;-72
2021/01/26 02:02:01;;;;;;;11.68;3.47;;;11.00;51.40;;;;;;1036095;28;20052;-73
2021/01/26 02:02:34;;;;;;;13.30;3.10;;;11.00;51.70;;;;;;1034276;28;20022;-72
2021/01/26 02:03:18;;;;;;;14.20;3.20;;;11.00;51.60;;;;;;1034104;28;20026;-73
2021/01/26 02:03:55;;;;;;;14.10;3.95;;;11.00;51.60;;;;;;1031826;28;20022;-72
2021/01/26 02:04:26;;;;;;;10.73;3.30;;;11.00;51.70;;;;;;1035437;28;20053;-72
2021/01/26 02:05:01;;;;;;;11.93;3.60;;;11.00;52.30;;;;;;1032169;28;20018;-72
2021/01/26 02:05:32;;;;;;;13.25;3.30;;;10.90;52.40;;;;;;1037456;28;20022;-72
2021/01/26 02:06:04;;;;;;;9.90;3.00;;;10.90;51.90;;;;;;1040192;28;20080;-72
2021/01/26 02:06:38;;;;;;;12.38;3.15;;;10.90;52.10;;;;;;1039045;28;20017;-72
2021/01/26 02:07:11;;;;;;;12.70;3.53;;;10.90;52.10;;;;;;1038317;28;20014;-73
2021/01/26 02:07:43;;;;;;;11.50;3.25;;;10.90;52.10;;;;;;1039401;28;20040;-72
2021/01/26 02:08:24;;;;;;;10.20;3.00;;;10.90;52.20;;;;;;1039265;28;20447;-72
2021/01/26 02:09:08;;;;;;;14.63;3.70;;;10.90;52.10;;;;;;1033471;28;20352;-73
2021/01/26 02:09:41;;;;;;;17.25;3.47;;;10.90;52.10;;;;;;1035838;28;20010;-72
2021/01/26 02:10:13;;;;;;;14.00;3.72;;;10.90;52.10;;;;;;1038139;28;20044;-73
2021/01/26 02:10:44;;;;;;;9.32;3.35;;;10.90;52.20;;;;;;1039121;28;20071;-72
2021/01/26 02:11:16;;;;;;;12.90;2.95;;;10.90;52.10;;;;;;1038051;28;20097;-72
2021/01/26 02:11:47;;;;;;;14.77;3.42;;;10.90;52.20;;;;;;1038931;28;20010;-71
2021/01/26 02:12:19;;;;;;;11.55;3.13;;;10.90;52.30;;;;;;1036070;28;20125;-72
2021/01/26 02:12:51;;;;;;;14.70;3.47;;;10.80;52.20;;;;;;1032601;28;20026;-72
2021/01/26 02:13:23;;;;;;;15.52;3.60;;;10.90;52.30;;;;;;1032366;28;20452;-72
2021/01/26 02:13:54;;;;;;;12.88;3.40;;;10.80;52.40;;;;;;1029330;28;20121;-72
2021/01/26 02:14:30;;;;;;;11.00;3.47;;;10.80;52.50;;;;;;1029992;28;20058;-73
2021/01/26 02:15:02;;;;;;;14.02;3.33;;;10.80;52.70;;;;;;1036769;28;20022;-72
2021/01/26 02:15:33;;;;;;;11.10;3.63;;;10.80;53.40;;;;;;1039985;28;20112;-72
2021/01/26 02:16:05;;;;;;;13.43;3.38;;;10.80;52.90;;;;;;1041605;28;20053;-72
2021/01/26 02:16:52;;;;;;;14.90;3.28;;;10.80;52.90;;;;;;1037272;28;20025;-73
2021/01/26 02:17:32;;;;;;;14.48;4.07;;;10.80;53.00;;;;;;1038369;28;20743;-73
2021/01/26 02:18:03;;;;;;;13.00;3.67;;;10.80;53.10;;;;;;1033553;28;20025;-72
2021/01/26 02:19:16;;;;;;;13.20;3.20;;;10.80;53.10;;;;;;1033131;28;20029;-72
2021/01/26 02:20:28;;;;;;;14.85;4.13;;;10.90;53.10;;;;;;1023287;29;20453;-72
2021/01/26 02:21:05;;;;;;;13.70;3.67;;;10.90;53.10;;;;;;1022241;29;20469;-72
2021/01/26 02:22:09;;;;;;;13.40;3.20;;;10.80;53.20;;;;;;1034619;28;20066;-73
2021/01/26 02:23:17;;;;;;;10.70;3.38;;;10.80;53.30;;;;;;1040151;28;20033;-74
2021/01/26 02:24:22;;;;;;;13.82;3.30;;;10.80;53.40;;;;;;1039084;28;20359;-73
2021/01/26 02:25:12;;;;;;;13.23;4.00;;;10.70;53.50;;;;;;1039861;28;20033;-73
2021/01/26 02:26:10;;;;;;;12.20;3.00;;;10.70;53.70;;;;;;1033497;28;20038;-73
2021/01/26 02:27:18;;;;;;;14.63;3.22;;;10.70;53.90;;;;;;1038485;28;20032;-72
2021/01/26 02:28:14;;;;;;;12.18;3.35;;;10.80;54.00;;;;;;1036945;28;20355;-73
2021/01/26 02:29:11;;;;;;;12.55;3.50;;;10.70;54.00;;;;;;1039446;28;20029;-73
2021/01/26 02:30:01;;;;;;;14.98;3.38;;;10.70;54.20;;;;;;1037777;28;20079;-72
2021/01/26 02:30:51;;;;;;;16.00;3.50;;;10.70;54.40;;;;;;1036508;28;20080;-73
2021/01/26 02:31:42;;;;;;;13.48;3.33;;;10.70;54.40;;;;;;1036605;28;20328;-73
2021/01/26 02:32:46;;;;;;;15.80;3.45;;;10.70;54.50;;;;;;1039951;28;20337;-73
2021/01/26 02:33:50;;;;;;;12.65;3.42;;;10.70;55.00;;;;;;1035901;28;20026;-72
2021/01/26 02:34:39;;;;;;;12.82;3.70;;;10.60;55.10;;;;;;1036574;28;20029;-73
2021/01/26 02:35:19;;;;;;;12.20;3.53;;;10.70;55.20;;;;;;1036940;28;20026;-73
2021/01/26 02:36:14;;;;;;;12.43;3.30;;;10.60;55.20;;;;;;1037906;28;20124;-73
2021/01/26 02:37:14;;;;;;;13.38;3.78;;;10.60;55.20;;;;;;1034946;28;20058;-73
2021/01/26 02:38:04;;;;;;;14.55;3.15;;;10.60;55.80;;;;;;1039076;28;20487;-74
2021/01/26 02:38:45;;;;;;;12.68;3.55;;;10.60;55.10;;;;;;1035312;28;20022;-73
2021/01/26 02:39:22;;;;;;;11.88;3.53;;;10.70;55.10;;;;;;1040330;28;20088;-74
2021/01/26 02:40:21;;;;;;;11.40;3.10;;;10.70;55.00;;;;;;1033277;28;20046;-73
2021/01/26 02:41:28;;;;;;;13.02;3.17;;;10.60;55.00;;;;;;1040144;28;20100;-73
2021/01/26 02:42:00;;;;;;;15.15;3.42;;;10.70;55.10;;;;;;1038863;28;20085;-74
2021/01/26 02:42:45;;;;;;;20.00;3.90;;;10.60;55.00;;;;;;1040360;28;20021;-74
2021/01/26 02:43:35;;;;;;;15.00;3.22;;;10.70;55.00;;;;;;1036075;28;20033;-71
2021/01/26 02:44:30;;;;;;;18.05;3.83;;;10.70;54.90;;;;;;1032099;28;20030;-73
2021/01/26 02:45:13;;;;;;;12.13;3.60;;;10.70;54.90;;;;;;1033200;28;20045;-73
2021/01/26 02:46:03;;;;;;;13.43;3.40;;;10.60;55.00;;;;;;1035061;28;20061;-74
2021/01/26 02:46:51;;;;;;;13.57;3.63;;;10.60;54.90;;;;;;1038036;28;20025;-73
2021/01/26 02:47:41;;;;;;;11.70;3.58;;;10.60;54.80;;;;;;1034697;28;20395;-73
2021/01/26 02:48:26;;;;;;;14.27;3.92;;;10.60;54.70;;;;;;1031260;28;20034;-73
2021/01/26 02:49:02;;;;;;;12.23;3.38;;;10.70;54.70;;;;;;1034011;28;20030;-73
2021/01/26 02:50:00;;;;;;;14.18;3.70;;;10.70;54.70;;;;;;1038638;28;20030;-72
2021/01/26 02:50:46;;;;;;;18.65;3.72;;;10.70;54.50;;;;;;1040490;28;20037;-73
2021/01/26 02:51:51;;;;;;;11.93;3.47;;;10.70;54.30;;;;;;1039638;28;20021;-73
2021/01/26 02:52:37;;;;;;;18.42;3.90;;;10.70;54.40;;;;;;1039808;28;20029;-73
2021/01/26 02:53:29;;;;;;;15.85;3.90;;;10.60;54.40;;;;;;1040024;28;20080;-73
2021/01/26 02:54:20;;;;;;;14.65;3.53;;;10.60;54.60;;;;;;1037261;28;20452;-72
2021/01/26 02:54:56;;;;;;;;;;;10.60;54.60;;;;;;1038431;28;20017;-72
2021/01/26 02:55:39;;;;;;;15.85;3.65;;;10.70;54.60;;;;;;1039408;28;19908;-72
2021/01/26 02:56:47;;;;;;;13.75;3.35;;;10.70;54.50;;;;;;1038735;28;20349;-72
2021/01/26 02:57:26;;;;;;;11.68;3.63;;;10.70;54.60;;;;;;1039566;28;20359;-70
2021/01/26 02:58:13;;;;;;;16.02;3.53;;;10.70;54.50;;;;;;1040193;28;20040;-72
2021/01/26 02:59:13;;;;;;;18.88;3.70;;;10.80;54.30;;;;;;1040449;28;20021;-73
2021/01/26 02:59:57;;;;;;;13.63;3.45;;;10.70;54.50;;;;;;1039851;28;20498;-70
2021/01/26 03:00:33;;;;;;;14.40;3.50;;;10.70;54.50;;;;;;1039954;28;20017;-70
2021/01/26 03:01:06;;;;;;;12.15;3.22;;;10.70;54.50;;;;;;1037398;28;20112;-71
2021/01/26 03:01:46;;;;;;;14.93;3.55;;;10.70;54.50;;;;;;1035537;28;20470;-72
2021/01/26 03:02:23;;;;;;;;;;;10.60;54.60;;;;;;1036038;28;20542;-71
2021/01/26 03:03:17;;;;;;;14.40;3.53;;;10.60;54.70;;;;;;1036558;28;20014;-71
2021/01/26 03:03:57;;;;;;;14.45;3.97;;;10.60;54.80;;;;;;1038157;28;20414;-70
2021/01/26 03:04:54;;;;;;;11.00;3.15;;;10.60;54.70;;;;;;1035912;28;20009;-70
2021/01/26 03:05:37;;;;;;;14.73;3.72;;;10.60;54.90;;;;;;1031858;28;20037;-71
2021/01/26 03:06:14;;;;;;;15.63;3.95;;;10.60;55.00;;;;;;1033222;28;20010;-70
2021/01/26 03:06:49;;;;;;;15.35;3.78;;;10.60;55.00;;;;;;1040383;28;20045;-70